Time;durP1;ratioP1;P1;durP2;ratioP2;P2;SDS_P1;SDS_P2;PMS_P1;PMS_P2;Temp;Humidity;BMP_temperature;BMP_pressure;BME280_temperature;BME280_humidity;BME280_pressure;Samples;Min_cycle;Max_cycle;Signal;HPM_P1;HPM_P2
2022/04/26 03:37:25;;;;;;;9.65;6.20;;;;;;;13.53;100.00;98518.44;5049018;28;20121;-44
2022/04/26 03:39:50;;;;;;;7.80;5.40;;;;;;;13.57;100.00;98511.25;5046769;28;20091;-46
2022/04/26 03:42:16;;;;;;;9.07;5.82;;;;;;;13.59;100.00;98514.59;5060825;28;20039;-46
2022/04/26 03:44:45;;;;;;;7.13;4.97;;;;;;;13.61;100.00;98515.31;5059726;28;20187;-46
2022/04/26 03:47:10;;;;;;;8.57;5.63;;;;;;;13.60;100.00;98511.06;5063119;28;20036;-46
2022/04/26 03:49:36;;;;;;;7.90;5.65;;;;;;;13.57;100.00;98512.09;5054465;28;20044;-43
2022/04/26 03:52:03;;;;;;;9.02;6.28;;;;;;;13.36;100.00;98497.81;5069985;28;20558;-46
2022/04/26 03:54:28;;;;;;;9.50;6.22;;;;;;;13.48;100.00;98517.06;5052130;28;20090;-45
2022/04/26 03:56:54;;;;;;;13.35;8.05;;;;;;;13.51;100.00;98527.31;5071151;28;20044;-46
2022/04/26 03:59:20;;;;;;;9.02;6.82;;;;;;;13.57;100.00;98526.91;5055952;28;20553;-47
2022/04/26 04:01:47;;;;;;;8.27;6.70;;;;;;;13.66;100.00;98533.34;5051359;28;20059;-46
2022/04/26 04:04:12;;;;;;;11.18;6.68;;;;;;;13.69;100.00;98512.22;5050743;28;20048;-46
2022/04/26 04:06:38;;;;;;;8.32;6.57;;;;;;;13.90;100.00;98529.09;5058548;28;20049;-46
2022/04/26 04:09:04;;;;;;;8.85;6.55;;;;;;;13.89;100.00;98523.03;5057331;28;20036;-45
2022/04/26 04:11:30;;;;;;;12.90;7.00;;;;;;;14.00;100.00;98520.56;5050911;28;20055;-49
2022/04/26 04:13:56;;;;;;;9.38;6.70;;;;;;;14.14;100.00;98535.28;5051071;28;20520;-44
2022/04/26 04:16:22;;;;;;;8.23;6.97;;;;;;;14.16;100.00;98532.59;5070608;28;20048;-46
2022/04/26 04:21:33;;;;;;;11.25;7.32;;;;;;;13.92;100.00;98528.03;5056247;28;20067;-45
2022/04/26 04:23:59;;;;;;;11.75;7.50;;;;;;;13.67;100.00;98519.31;5048405;28;20037;-46
2022/04/26 04:26:24;;;;;;;11.95;7.43;;;;;;;13.64;100.00;98530.81;5054699;28;20044;-46
2022/04/26 04:28:50;;;;;;;10.30;7.50;;;;;;;13.55;100.00;98528.81;5050262;28;20032;-45
2022/04/26 04:31:16;;;;;;;9.48;7.35;;;;;;;13.42;100.00;98513.09;5065669;28;20508;-45
2022/04/26 04:33:44;;;;;;;10.43;7.65;;;;;;;13.47;100.00;98528.44;5048306;28;20056;-47
2022/04/26 04:36:12;;;;;;;11.20;8.13;;;;;;;13.39;100.00;98510.69;5040815;28;20045;-48
2022/04/26 04:38:38;;;;;;;9.43;7.65;;;;;;;13.40;100.00;98514.09;5051586;28;20033;-45
2022/04/26 04:41:07;;;;;;;10.23;7.40;;;;;;;13.44;100.00;98520.81;5049620;28;20039;-47
2022/04/26 04:43:34;;;;;;;9.40;7.40;;;;;;;13.48;100.00;98522.31;5049713;28;20045;-46
2022/04/26 04:46:00;;;;;;;8.75;6.22;;;;;;;13.50;100.00;98528.28;5050542;28;20575;-46
2022/04/26 04:48:26;;;;;;;11.00;6.63;;;;;;;13.53;100.00;98523.69;5049399;28;20116;-47
2022/04/26 04:50:52;;;;;;;11.68;8.50;;;;;;;13.58;100.00;98526.00;5049371;28;20151;-45
2022/04/26 04:53:21;;;;;;;9.10;6.72;;;;;;;13.57;100.00;98519.94;5057350;28;20068;-43
2022/04/26 04:55:47;;;;;;;;;;;;;;;13.56;100.00;98518.25;5048855;28;20045;-44
2022/04/26 04:58:13;;;;;;;8.20;5.50;;;;;;;13.55;100.00;98511.34;5049073;28;20022;-45
2022/04/26 05:00:39;;;;;;;9.65;7.03;;;;;;;13.52;100.00;98503.72;5051995;28;20522;-44
2022/04/26 05:03:05;;;;;;;7.75;6.00;;;;;;;13.44;100.00;98500.78;5055361;28;20090;-46
2022/04/26 05:05:30;;;;;;;7.80;5.50;;;;;;;13.52;100.00;98511.56;5048656;28;20052;-45
2022/04/26 05:07:58;;;;;;;7.15;5.80;;;;;;;13.53;100.00;98508.00;5049815;28;20040;-47
2022/04/26 05:10:25;;;;;;;8.05;6.05;;;;;;;13.56;100.00;98501.72;5049370;28;20041;-44
2022/04/26 05:12:53;;;;;;;6.57;5.38;;;;;;;13.60;100.00;98491.94;5045993;28;20285;-46
2022/04/26 05:15:19;;;;;;;6.20;4.88;;;;;;;13.58;100.00;98492.88;5046811;28;20127;-47
2022/04/26 05:17:45;;;;;;;6.10;5.00;;;;;;;13.47;100.00;98474.47;5048568;28;20136;-44
2022/04/26 05:20:12;;;;;;;7.40;5.70;;;;;;;13.60;100.00;98497.16;5071542;28;20509;-46
2022/04/26 05:25:24;;;;;;;10.20;5.85;;;;;;;13.50;100.00;98484.69;5047094;28;20192;-45
2022/04/26 05:30:34;;;;;;;10.27;5.55;;;;;;;13.61;96.46;98484.00;5062741;28;20040;-46
2022/04/26 05:33:00;;;;;;;11.75;6.35;;;;;;;13.67;100.00;98485.38;5064953;28;20051;-46
2022/04/26 05:35:26;;;;;;;7.65;5.28;;;;;;;13.80;100.00;98492.31;5047758;28;20070;-44
2022/04/26 05:37:51;;;;;;;8.48;4.97;;;;;;;13.82;95.30;98498.25;5047083;28;20071;-45
2022/04/26 05:40:17;;;;;;;10.02;5.40;;;;;;;13.92;90.76;98498.50;5047687;28;20079;-44
2022/04/26 05:42:43;;;;;;;8.82;5.90;;;;;;;14.02;97.46;98496.94;5049806;28;20052;-44
2022/04/26 05:45:08;;;;;;;12.35;6.57;;;;;;;14.20;98.78;98498.28;5051745;28;20036;-45
2022/04/26 05:47:41;;;;;;;12.63;6.18;;;;;;;14.39;98.83;98479.63;5048117;28;20087;-45
2022/04/26 05:50:08;;;;;;;9.30;6.30;;;;;;;14.76;95.28;98490.94;5048593;28;20063;-45
2022/04/26 05:52:34;;;;;;;7.20;5.53;;;;;;;14.76;88.83;98497.00;5014126;28;20484;-47
2022/04/26 05:55:00;;;;;;;8.48;5.43;;;;;;;14.78;90.91;98497.75;5047532;28;20051;-47
2022/04/26 05:57:28;;;;;;;7.18;5.50;;;;;;;14.84;83.55;98497.34;5047845;28;20631;-45
2022/04/26 05:59:54;;;;;;;8.63;5.97;;;;;;;14.91;86.80;98510.81;5046064;28;20057;-44
2022/04/26 06:02:19;;;;;;;8.60;5.25;;;;;;;14.77;83.52;98496.06;5063878;28;20055;-46
2022/04/26 06:04:46;;;;;;;8.20;5.70;;;;;;;14.91;88.54;98499.53;5053864;28;20053;-45
2022/04/26 06:07:15;;;;;;;8.15;4.22;;;;;;;14.99;83.85;98505.03;5048993;28;20045;-42
2022/04/26 06:09:41;;;;;;;7.97;4.80;;;;;;;15.05;86.08;98501.97;5046713;28;20032;-42
2022/04/26 06:12:08;;;;;;;7.80;5.03;;;;;;;15.14;84.85;98501.31;5049412;28;20036;-45
2022/04/26 06:14:34;;;;;;;7.68;4.90;;;;;;;15.09;82.76;98501.66;5047431;28;20044;-44
2022/04/26 06:16:59;;;;;;;10.68;5.57;;;;;;;15.36;79.34;98503.22;5049890;28;20049;-43
2022/04/26 06:19:25;;;;;;;10.82;5.60;;;;;;;16.27;85.40;98513.00;5049575;28;20040;-42
2022/04/26 06:21:51;;;;;;;8.65;5.00;;;;;;;17.47;73.56;98486.91;5047562;28;20032;-44
2022/04/26 06:24:16;;;;;;;7.05;5.50;;;;;;;18.78;58.60;98522.28;5047195;28;20036;-42
2022/04/26 06:26:42;;;;;;;9.60;5.25;;;;;;;19.28;57.48;98511.75;5047697;28;20180;-42
2022/04/26 06:29:08;;;;;;;6.03;5.40;;;;;;;19.95;57.73;98516.25;5048033;28;20102;-49
2022/04/26 06:31:36;;;;;;;9.43;5.82;;;;;;;20.79;52.79;98514.56;5045097;28;20055;-44
2022/04/26 06:34:02;;;;;;;8.93;5.22;;;;;;;21.78;52.61;98516.34;5045747;28;20424;-45
2022/04/26 06:36:28;;;;;;;7.40;5.40;;;;;;;23.09;51.10;98504.66;5047178;28;20750;-46
2022/04/26 06:38:53;;;;;;;9.65;6.85;;;;;;;23.93;43.30;98524.94;5047582;28;20049;-44
2022/04/26 06:41:20;;;;;;;8.27;4.80;;;;;;;24.95;44.53;98519.88;5032068;28;20075;-46
2022/04/26 06:43:46;;;;;;;11.10;6.32;;;;;;;25.98;46.94;98523.13;5047313;28;20594;-45
2022/04/26 06:46:14;;;;;;;7.10;4.43;;;;;;;25.88;42.97;98520.69;5051445;28;20060;-46
2022/04/26 06:48:41;;;;;;;10.27;5.00;;;;;;;25.10;43.74;98518.16;5048475;28;20041;-43
2022/04/26 06:51:08;;;;;;;6.53;4.40;;;;;;;23.01;50.92;98525.88;5047418;28;20047;-48
2022/04/26 06:53:34;;;;;;;5.85;3.50;;;;;;;22.33;50.30;98523.13;5047184;28;20490;-43
2022/04/26 06:56:00;;;;;;;6.57;4.03;;;;;;;23.59;47.69;98520.59;5051672;28;20048;-46
2022/04/26 06:58:26;;;;;;;4.95;4.10;;;;;;;25.22;45.22;98532.72;5046083;28;20060;-45
2022/04/26 07:00:51;;;;;;;4.47;3.47;;;;;;;25.73;38.48;98520.66;5046131;28;20041;-43
2022/04/26 07:03:18;;;;;;;5.97;3.47;;;;;;;25.82;35.31;98520.56;5052761;28;20048;-43
2022/04/26 07:05:44;;;;;;;4.75;3.22;;;;;;;26.70;38.33;98526.13;5047225;28;20057;-50
2022/04/26 07:08:10;;;;;;;3.88;3.47;;;;;;;27.50;36.43;98532.38;5054596;28;20056;-47
2022/04/26 07:10:37;;;;;;;5.60;3.88;;;;;;;27.77;36.38;98526.31;5056782;28;20041;-47
2022/04/26 07:13:03;;;;;;;4.68;3.80;;;;;;;27.55;32.94;98537.16;5048286;28;20121;-46
2022/04/26 07:15:28;;;;;;;5.57;4.03;;;;;;;27.59;32.39;98528.56;5049801;28;20244;-46
2022/04/26 07:17:55;;;;;;;4.38;3.97;;;;;;;28.63;37.27;98524.38;5047578;28;20144;-46
2022/04/26 07:20:20;;;;;;;4.85;4.03;;;;;;;29.37;37.78;98532.63;5050451;28;20139;-49
2022/04/26 07:22:46;;;;;;;5.90;4.85;;;;;;;28.49;37.10;98520.78;5051161;28;20040;-45
2022/04/26 07:25:12;;;;;;;8.20;4.82;;;;;;;27.20;42.72;98536.09;5050458;28;20032;-49
2022/04/26 07:27:40;;;;;;;6.57;4.25;;;;;;;25.82;43.14;98544.53;5050757;28;20044;-46
2022/04/26 07:30:15;;;;;;;6.32;4.80;;;;;;;24.98;42.79;98538.13;5048668;28;20056;-48
2022/04/26 07:35:28;;;;;;;5.65;5.00;;;;;;;27.04;39.54;98539.78;5050290;28;20110;-49
2022/04/26 07:37:54;;;;;;;5.30;4.30;;;;;;;29.00;33.88;98534.72;5050096;28;20512;-47
2022/04/26 07:40:21;;;;;;;5.90;3.88;;;;;;;30.30;30.08;98519.22;5050464;28;20068;-48
2022/04/26 07:42:47;;;;;;;6.45;3.22;;;;;;;31.63;27.01;98538.56;5071020;28;20592;-45
2022/04/26 07:45:13;;;;;;;5.78;4.40;;;;;;;32.02;25.53;98530.25;5050347;28;20124;-45
2022/04/26 07:47:39;;;;;;;6.80;3.50;;;;;;;33.24;24.29;98526.06;5050719;28;20167;-45
2022/04/26 07:50:05;;;;;;;11.18;4.22;;;;;;;34.17;22.53;98534.50;5050386;28;20496;-47
2022/04/26 07:52:31;;;;;;;8.00;4.32;;;;;;;35.20;21.71;98537.50;5049725;28;20124;-45
2022/04/26 07:54:57;;;;;;;5.75;3.58;;;;;;;34.85;21.21;98530.25;5046213;28;20047;-45
2022/04/26 07:57:23;;;;;;;5.10;4.07;;;;;;;31.67;23.99;98524.47;5050235;28;20044;-43
2022/04/26 07:59:50;;;;;;;5.90;3.88;;;;;;;29.43;25.80;98519.28;5048052;28;20041;-44
2022/04/26 08:02:16;;;;;;;7.07;3.40;;;;;;;29.77;26.05;98504.94;5049897;28;20055;-47
2022/04/26 08:04:42;;;;;;;5.55;3.50;;;;;;;28.63;26.70;98511.00;5049940;28;20119;-45
2022/04/26 08:07:08;;;;;;;7.22;3.53;;;;;;;27.59;28.10;98512.53;5050463;28;20051;-46
2022/04/26 08:09:38;;;;;;;6.50;3.90;;;;;;;26.73;29.42;98485.78;5049629;28;20086;-45
2022/04/26 08:12:04;;;;;;;4.30;3.90;;;;;;;27.88;28.65;98506.28;5047027;28;20036;-47
2022/04/26 08:14:31;;;;;;;9.23;4.50;;;;;;;28.87;27.42;98521.28;5040284;28;20451;-46
2022/04/26 08:16:57;;;;;;;4.95;4.07;;;;;;;29.37;26.85;98511.22;5049996;28;20037;-47
2022/04/26 08:19:23;;;;;;;6.65;4.30;;;;;;;30.78;24.78;98516.31;5049881;28;20502;-46
2022/04/26 08:21:50;;;;;;;12.40;4.13;;;;;;;32.70;22.60;98520.41;5049357;28;20072;-49
2022/04/26 08:29:46;;;;;;;4.68;3.60;;;;;;;35.18;20.08;98517.97;5032565;28;20082;-45
2022/04/26 08:32:13;;;;;;;3.47;3.10;;;;;;;35.66;19.16;98518.44;5049119;28;20122;-46
2022/04/26 08:34:40;;;;;;;5.13;3.45;;;;;;;34.71;19.24;98514.50;5048874;28;20176;-45
2022/04/26 08:37:06;;;;;;;3.40;3.10;;;;;;;34.72;19.33;98508.06;5049726;28;20049;-44
2022/04/26 08:39:31;;;;;;;5.45;3.10;;;;;;;34.92;19.79;98508.50;5049951;28;20094;-46
2022/04/26 08:41:58;;;;;;;4.13;3.50;;;;;;;34.76;19.38;98507.34;5049521;28;20045;-45
2022/04/26 08:44:28;;;;;;;5.03;3.70;;;;;;;35.10;19.33;98510.25;5049858;28;20037;-43
2022/04/26 08:52:25;;;;;;;5.05;3.60;;;;;;;30.35;23.51;98501.72;5048263;28;20041;-46
2022/04/26 08:54:50;;;;;;;11.38;4.53;;;;;;;29.53;25.40;98504.66;5049233;28;20052;-47
2022/04/26 08:57:16;;;;;;;7.18;3.42;;;;;;;28.69;26.01;98496.84;5047550;28;20075;-47
2022/04/26 08:59:47;;;;;;;7.78;3.63;;;;;;;27.84;27.30;98498.84;5062611;28;20064;-46
2022/04/26 09:02:22;;;;;;;6.40;3.42;;;;;;;27.34;27.79;98492.53;5080506;28;20115;-49
2022/04/26 09:04:49;;;;;;;8.07;3.33;;;;;;;26.80;28.49;98479.50;5049227;28;20118;-45
2022/04/26 09:07:32;;;;;;;5.68;3.33;;;;;;;26.19;28.96;98499.28;5048939;28;20535;-44
2022/04/26 09:10:10;;;;;;;7.22;3.40;;;;;;;25.60;29.78;98500.91;5049185;28;20505;-47
2022/04/26 09:13:01;;;;;;;8.65;4.05;;;;;;;25.14;30.83;98498.16;5048777;28;20087;-44
2022/04/26 09:15:49;;;;;;;3.20;2.90;;;;;;;24.65;30.82;98497.47;5047548;28;20124;-47
2022/04/26 09:18:30;;;;;;;4.88;3.88;;;;;;;;;;5049003;28;20051;-46
2022/04/26 09:20:59;;;;;;;4.20;3.35;;;;;;;25.87;29.78;98494.22;5081004;28;20072;-45
2022/04/26 09:23:28;;;;;;;8.60;2.80;;;;;;;26.84;28.36;98498.66;5054145;28;20087;-45
2022/04/26 09:26:07;;;;;;;4.32;2.70;;;;;;;27.44;27.27;98494.88;5047322;28;20466;-45
2022/04/26 09:28:34;;;;;;;3.78;2.90;;;;;;;28.57;26.32;98482.38;5049176;28;20048;-43
2022/04/26 09:31:00;;;;;;;9.60;3.20;;;;;;;29.94;24.11;98500.03;5047391;28;20480;-47
2022/04/26 09:33:38;;;;;;;3.60;3.30;;;;;;;29.85;23.66;98503.91;5047390;28;20135;-48
2022/04/26 09:36:11;;;;;;;5.00;2.85;;;;;;;30.23;23.94;98488.09;5049158;28;20052;-45
2022/04/26 09:38:38;;;;;;;4.60;2.75;;;;;;;30.16;23.95;98488.09;5041034;28;20045;-48
2022/04/26 09:41:11;;;;;;;3.38;2.83;;;;;;;30.78;23.48;98492.16;5076027;28;20047;-45
2022/04/26 09:43:38;;;;;;;4.72;2.92;;;;;;;30.98;23.37;98474.16;5046649;28;20047;-46
2022/04/26 09:46:04;;;;;;;3.47;3.00;;;;;;;30.09;24.40;98489.13;5048741;28;20048;-45
2022/04/26 09:48:38;;;;;;;8.15;3.20;;;;;;;29.55;24.83;98479.34;5048307;28;20049;-48
2022/04/26 09:51:05;;;;;;;6.68;3.38;;;;;;;29.92;24.94;98485.19;5048747;28;20127;-44
2022/04/26 09:53:35;;;;;;;7.25;2.55;;;;;;;29.77;24.99;98488.03;5047571;28;20527;-44
2022/04/26 09:56:03;;;;;;;4.90;3.15;;;;;;;29.15;25.87;98485.59;5047983;28;20037;-44
2022/04/26 09:58:30;;;;;;;5.38;3.10;;;;;;;28.38;26.60;98485.72;5046407;28;20134;-44
2022/04/26 10:01:04;;;;;;;6.13;2.83;;;;;;;27.54;27.45;98480.25;5048406;28;20123;-45
2022/04/26 10:03:32;;;;;;;9.38;3.20;;;;;;;27.27;28.31;98492.44;5046764;28;20081;-46
2022/04/26 10:06:05;;;;;;;7.88;3.20;;;;;;;27.90;27.39;98490.06;5062062;28;20533;-46
2022/04/26 10:08:34;;;;;;;7.78;3.22;;;;;;;28.42;26.71;98495.84;5041853;28;20122;-47
2022/04/26 10:11:04;;;;;;;7.90;3.90;;;;;;;28.70;26.12;98503.00;5047496;28;20141;-50
2022/04/26 10:13:33;;;;;;;5.28;3.20;;;;;;;29.17;25.85;98502.25;5044130;28;20496;-44
2022/04/26 10:16:04;;;;;;;4.82;2.95;;;;;;;29.55;25.10;98499.94;5026594;28;20041;-52
2022/04/26 10:18:33;;;;;;;7.00;3.58;;;;;;;29.68;24.95;98494.59;5030050;28;20508;-47
2022/04/26 10:21:21;;;;;;;7.45;4.82;;;;;;;29.97;24.72;98496.13;5046757;28;20145;-46
2022/04/26 10:24:03;;;;;;;5.47;3.03;;;;;;;30.27;24.75;98500.88;5043666;28;20032;-46
2022/04/26 10:26:35;;;;;;;3.30;2.85;;;;;;;30.08;24.32;98507.06;5046224;28;20511;-48
2022/04/26 10:29:12;;;;;;;4.55;3.20;;;;;;;29.84;24.52;98504.94;5047257;28;20041;-46
2022/04/26 10:31:47;;;;;;;3.95;2.60;;;;;;;28.70;25.28;98511.88;5047235;28;20793;-45
2022/04/26 10:34:26;;;;;;;3.17;2.58;;;;;;;27.86;26.90;98510.16;5027791;28;20390;-46
2022/04/26 10:36:56;;;;;;;3.38;2.50;;;;;;;27.18;27.15;98519.44;5046314;28;20041;-45
2022/04/26 10:39:36;;;;;;;7.38;3.33;;;;;;;26.82;27.51;98506.84;5046141;28;20533;-46
2022/04/26 10:42:11;;;;;;;5.00;3.05;;;;;;;26.24;28.46;98509.44;5044404;28;20036;-45
2022/04/26 10:44:45;;;;;;;2.92;2.60;;;;;;;25.95;29.29;98508.34;5046140;28;20124;-47
2022/04/26 10:47:22;;;;;;;4.47;2.78;;;;;;;25.84;28.94;98503.44;5046516;28;20140;-47
2022/04/26 10:49:49;;;;;;;4.63;2.65;;;;;;;24.99;29.09;98499.91;5046303;28;20469;-46
2022/04/26 10:52:15;;;;;;;4.38;2.60;;;;;;;24.17;30.37;98505.53;5044496;28;20374;-45
2022/04/26 10:54:47;;;;;;;4.28;2.55;;;;;;;24.12;30.83;98495.41;5051070;28;20095;-44
2022/04/26 10:57:13;;;;;;;3.72;2.60;;;;;;;24.18;30.84;98496.59;5050302;28;20509;-44
2022/04/26 10:59:43;;;;;;;3.72;2.67;;;;;;;24.30;31.03;98495.25;5048777;28;20045;-47
2022/04/26 11:02:12;;;;;;;6.85;3.95;;;;;;;24.53;30.72;98496.22;5048739;28;20552;-47
2022/04/26 11:04:39;;;;;;;4.30;2.40;;;;;;;24.53;30.51;98476.78;5051656;28;20084;-47
2022/04/26 11:07:27;;;;;;;3.63;2.80;;;;;;;24.43;30.76;98495.56;5047426;28;20055;-50
2022/04/26 11:09:56;;;;;;;5.78;2.67;;;;;;;23.98;31.15;98510.16;5047721;28;20194;-49
2022/04/26 11:12:24;;;;;;;7.35;3.22;;;;;;;23.87;31.58;98507.00;5045008;28;20073;-43
2022/04/26 11:14:52;;;;;;;5.00;2.70;;;;;;;23.95;31.54;98510.50;5051426;28;20044;-44
2022/04/26 11:17:19;;;;;;;6.70;3.15;;;;;;;24.17;31.68;98510.84;5050696;28;20166;-45
2022/04/26 11:19:53;;;;;;;5.07;2.70;;;;;;;24.03;31.53;98513.16;5025019;28;20034;-43
2022/04/26 11:22:20;;;;;;;3.45;2.22;;;;;;;23.15;32.48;98519.09;5049518;28;20037;-44
2022/04/26 11:30:28;;;;;;;3.55;2.40;;;;;;;22.01;34.33;98514.09;5069851;28;20037;-45
2022/04/26 11:32:56;;;;;;;6.57;2.40;;;;;;;22.20;34.36;98516.56;5050859;28;20045;-47
2022/04/26 11:35:22;;;;;;;13.25;3.35;;;;;;;22.33;34.31;98514.34;5046320;28;20045;-48
2022/04/26 11:37:50;;;;;;;4.90;2.53;;;;;;;22.46;34.31;98514.75;5048884;28;20098;-47
2022/04/26 11:40:28;;;;;;;11.00;4.78;;;;;;;22.54;34.32;98503.41;5050529;28;20057;-44
2022/04/26 11:42:57;;;;;;;4.13;2.55;;;;;;;22.68;34.36;98522.19;5048301;28;20700;-45
2022/04/26 11:45:28;;;;;;;;;;;;;;;22.51;34.30;98511.63;5051074;28;20071;-44
2022/04/26 11:47:56;;;;;;;4.68;2.55;;;;;;;22.37;34.47;98513.06;5049793;28;19923;-44
2022/04/26 11:50:23;;;;;;;5.13;2.38;;;;;;;22.35;34.77;98512.38;5029903;28;20566;-46
2022/04/26 11:52:55;;;;;;;2.90;2.22;;;;;;;22.30;35.02;98515.47;5073366;28;20187;-45
2022/04/26 11:55:38;;;;;;;6.75;2.75;;;;;;;22.35;34.91;98515.84;5049633;28;20083;-46
2022/04/26 11:58:07;;;;;;;8.52;2.60;;;;;;;22.27;34.86;98505.22;5049513;28;20047;-44
2022/04/26 12:00:33;;;;;;;8.75;2.88;;;;;;;22.38;34.88;98504.97;5048482;28;20536;-46
2022/04/26 12:03:01;;;;;;;5.80;2.75;;;;;;;22.52;34.61;98506.19;5056788;28;20142;-45
2022/04/26 12:05:27;;;;;;;3.40;2.05;;;;;;;22.36;34.55;98514.88;5053375;28;20626;-43
2022/04/26 12:07:57;;;;;;;2.58;2.20;;;;;;;22.02;34.99;98515.78;5031270;28;20090;-45
2022/04/26 12:10:24;;;;;;;4.95;2.53;;;;;;;21.76;35.33;98502.47;5050696;28;20048;-44
2022/04/26 12:12:55;;;;;;;12.18;3.13;;;;;;;21.85;35.72;98497.09;5050095;28;20124;-46
2022/04/26 12:15:29;;;;;;;4.13;2.30;;;;;;;22.03;35.37;98506.88;5049171;28;20051;-44
2022/04/26 12:18:15;;;;;;;4.72;2.50;;;;;;;22.67;34.61;98499.31;5038567;28;20048;-48
2022/04/26 12:21:02;;;;;;;5.13;2.45;;;;;;;22.76;34.16;98502.91;5048862;28;20071;-44
2022/04/26 12:23:29;;;;;;;3.85;2.88;;;;;;;22.71;34.08;98507.84;5049136;28;20127;-45
2022/04/26 12:26:02;;;;;;;5.90;2.70;;;;;;;22.70;34.34;98501.69;5048293;28;20150;-44
2022/04/26 12:28:29;;;;;;;3.10;2.42;;;;;;;23.20;33.84;98492.94;5050011;28;20429;-44
2022/04/26 12:30:56;;;;;;;3.70;2.60;;;;;;;23.44;33.99;98497.50;5048630;28;20501;-45
2022/04/26 12:33:34;;;;;;;4.88;2.35;;;;;;;23.39;33.23;98479.41;5048815;28;20053;-46
2022/04/26 12:36:05;;;;;;;5.50;2.60;;;;;;;23.48;33.21;98490.91;5049846;28;20098;-45
2022/04/26 12:38:43;;;;;;;2.67;1.80;;;;;;;23.42;32.88;98494.16;5058046;28;20127;-43
2022/04/26 12:41:09;;;;;;;;;;;;;;;23.29;32.69;98499.13;5080697;28;20043;-44
2022/04/26 12:43:35;;;;;;;4.13;1.92;;;;;;;23.03;32.81;98502.66;5048058;28;19916;-47
2022/04/26 12:46:03;;;;;;;3.53;2.05;;;;;;;22.58;32.92;98494.97;5063678;28;20040;-47
2022/04/26 12:51:20;;;;;;;4.55;2.42;;;;;;;22.20;33.57;98492.72;5047702;28;20064;-45
2022/04/26 12:53:49;;;;;;;4.00;1.60;;;;;;;22.15;33.35;98492.38;5049334;28;20033;-44
2022/04/26 12:56:15;;;;;;;3.45;1.70;;;;;;;22.15;32.94;98487.06;5048988;28;20513;-46
2022/04/26 12:58:43;;;;;;;4.65;1.95;;;;;;;22.19;32.93;98486.59;5046638;28;20041;-44
2022/04/26 13:01:09;;;;;;;2.80;1.70;;;;;;;21.76;32.76;98498.00;5048099;28;20037;-46
2022/04/26 13:03:35;;;;;;;3.28;1.63;;;;;;;21.59;33.13;98493.53;5047724;28;20090;-48
2022/04/26 13:06:16;;;;;;;4.25;1.60;;;;;;;21.36;33.05;98487.00;5048222;28;20053;-45
2022/04/26 13:08:43;;;;;;;3.42;1.60;;;;;;;21.14;33.18;98483.81;5031387;28;20099;-48
2022/04/26 13:11:09;;;;;;;3.03;1.85;;;;;;;20.67;33.64;98461.13;5031281;28;20035;-46
2022/04/26 13:13:39;;;;;;;2.35;1.58;;;;;;;20.73;33.97;98479.81;5048619;28;20032;-48
2022/04/26 13:16:05;;;;;;;4.88;1.80;;;;;;;20.69;34.01;98465.25;5048225;28;20051;-46
2022/04/26 13:18:31;;;;;;;2.10;1.70;;;;;;;20.89;34.23;98473.91;5064413;28;20053;-44
2022/04/26 13:20:58;;;;;;;3.75;1.88;;;;;;;20.77;34.07;98476.91;5049281;28;20037;-46
2022/04/26 13:23:26;;;;;;;3.28;1.77;;;;;;;20.61;34.41;98482.81;5048875;28;20516;-49
2022/04/26 13:25:52;;;;;;;5.88;1.40;;;;;;;20.31;34.35;98460.09;5080968;28;20041;-44
2022/04/26 13:28:18;;;;;;;9.15;1.70;;;;;;;20.16;34.59;98479.97;5049046;28;20135;-47
2022/04/26 13:30:44;;;;;;;3.97;1.75;;;;;;;20.11;34.75;98483.06;5048246;28;20037;-46
2022/04/26 13:33:10;;;;;;;3.38;1.70;;;;;;;20.13;34.88;98475.00;5048597;28;20053;-47
2022/04/26 13:35:39;;;;;;;4.60;2.05;;;;;;;20.33;35.07;98481.94;5047218;28;20037;-45
2022/04/26 13:38:07;;;;;;;6.25;2.20;;;;;;;20.45;35.08;98479.97;5063899;28;20437;-46
2022/04/26 13:40:33;;;;;;;4.90;1.60;;;;;;;20.48;35.25;98484.94;5048117;28;20045;-45
2022/04/26 13:42:58;;;;;;;5.63;2.10;;;;;;;20.35;35.00;98482.63;5048860;28;20186;-49
2022/04/26 13:45:25;;;;;;;2.17;1.50;;;;;;;20.35;35.38;98487.06;5017004;28;20126;-44
2022/04/26 13:47:51;;;;;;;3.13;1.42;;;;;;;20.19;35.17;98475.28;5045813;28;20087;-47
2022/04/26 13:50:17;;;;;;;3.95;1.60;;;;;;;20.39;35.30;98485.81;5048094;28;20478;-46
2022/04/26 13:52:44;;;;;;;4.90;2.92;;;;;;;20.54;34.95;98473.81;5048241;28;20049;-46
2022/04/26 13:55:11;;;;;;;2.30;1.40;;;;;;;20.77;34.71;98479.56;5048123;28;20047;-47
2022/04/26 13:57:39;;;;;;;4.50;1.80;;;;;;;20.87;34.86;98480.34;5048576;28;20036;-43
2022/04/26 14:00:05;;;;;;;7.38;2.03;;;;;;;20.87;35.14;98477.69;5044958;28;20048;-46
2022/04/26 14:02:41;;;;;;;4.00;1.95;;;;;;;20.73;35.47;98463.16;5048393;28;20045;-46
2022/04/26 14:05:07;;;;;;;4.90;1.70;;;;;;;20.73;35.37;98471.91;5047783;28;20053;-46
2022/04/26 14:07:33;;;;;;;6.88;1.90;;;;;;;20.63;35.71;98475.56;5046867;28;20455;-46
2022/04/26 14:09:59;;;;;;;4.22;1.80;;;;;;;20.54;35.80;98476.44;5046244;28;20044;-45
2022/04/26 14:12:25;;;;;;;3.67;2.17;;;;;;;20.33;35.74;98478.44;5048153;28;20114;-46
2022/04/26 14:23:03;;;;;;;4.57;1.80;;;;;;;19.91;36.72;98488.50;5041198;28;20037;-44
2022/04/26 14:25:29;;;;;;;5.47;1.90;;;;;;;19.76;36.82;98480.19;5017968;28;20092;-44
2022/04/26 14:27:54;;;;;;;9.23;2.25;;;;;;;19.60;37.38;98483.38;5060092;28;20037;-47
2022/04/26 14:30:20;;;;;;;7.75;2.03;;;;;;;19.54;37.54;98483.94;5028260;28;20033;-45
2022/04/26 14:32:46;;;;;;;4.40;2.10;;;;;;;19.45;37.86;98484.75;5026546;28;20472;-43
2022/04/26 14:35:12;;;;;;;7.60;2.22;;;;;;;19.31;38.32;98490.41;5044265;28;20626;-45
2022/04/26 14:37:38;;;;;;;5.57;2.33;;;;;;;19.11;38.44;98492.16;5047911;28;20037;-46
2022/04/26 14:40:04;;;;;;;3.30;2.13;;;;;;;18.95;39.13;98491.84;5063447;28;20041;-49
2022/04/26 14:42:30;;;;;;;7.75;2.30;;;;;;;18.84;39.04;98494.59;5048123;28;20041;-44
2022/04/26 14:44:57;;;;;;;8.40;2.60;;;;;;;18.76;39.73;98495.25;5047371;28;20051;-45
2022/04/26 14:47:26;;;;;;;5.97;2.50;;;;;;;18.69;40.10;98499.38;5080296;28;20036;-45
2022/04/26 14:49:57;;;;;;;;;;;;;;;18.58;40.14;98508.19;5080668;28;20036;-45
2022/04/26 14:52:24;;;;;;;11.48;2.30;;;;;;;18.49;40.42;98501.06;5046311;28;19916;-43
2022/04/26 14:54:50;;;;;;;7.90;2.40;;;;;;;18.44;40.85;98508.50;5047568;28;20528;-45
2022/04/26 14:57:21;;;;;;;10.18;2.30;;;;;;;18.42;41.29;98509.63;5046676;28;20500;-47
2022/04/26 14:59:47;;;;;;;8.38;2.28;;;;;;;18.42;41.20;98504.34;5044465;28;20040;-46
2022/04/26 15:02:17;;;;;;;4.38;2.60;;;;;;;18.40;41.44;98503.63;5046788;28;20044;-46
2022/04/26 15:04:47;;;;;;;11.10;3.10;;;;;;;18.42;41.19;98501.72;5047390;28;20069;-44
2022/04/26 15:07:14;;;;;;;5.97;2.22;;;;;;;18.29;41.21;98474.78;5059868;28;20119;-43
2022/04/26 15:09:43;;;;;;;5.65;2.70;;;;;;;18.45;41.34;98504.09;5059655;28;20052;-47
2022/04/26 15:17:49;;;;;;;5.88;2.90;;;;;;;18.30;41.70;98505.38;5047331;28;20425;-44
2022/04/26 15:20:17;;;;;;;4.78;2.67;;;;;;;18.15;41.81;98502.25;5047403;28;20049;-47
2022/04/26 15:22:43;;;;;;;7.05;3.25;;;;;;;18.11;41.98;98519.22;5046054;28;20141;-46
2022/04/26 15:25:09;;;;;;;5.75;3.03;;;;;;;18.01;42.42;98519.19;5047562;28;20175;-45
2022/04/26 15:27:39;;;;;;;7.22;2.72;;;;;;;17.89;42.71;98517.59;5046664;28;20504;-46
2022/04/26 15:30:07;;;;;;;6.10;2.30;;;;;;;17.84;43.09;98519.75;5047546;28;20043;-46
2022/04/26 15:32:33;;;;;;;6.85;2.55;;;;;;;17.78;43.02;98520.25;5029781;28;20218;-46
2022/04/26 15:34:59;;;;;;;6.78;2.25;;;;;;;17.71;43.25;98513.81;5028362;28;20045;-44
2022/04/26 15:37:25;;;;;;;12.00;2.60;;;;;;;17.58;43.58;98506.09;5045755;28;20063;-46
2022/04/26 15:39:53;;;;;;;11.85;2.20;;;;;;;17.62;43.94;98518.06;5050899;28;20527;-46
2022/04/26 15:42:18;;;;;;;5.28;2.10;;;;;;;17.57;43.77;98514.09;5051025;28;20037;-45
2022/04/26 15:44:45;;;;;;;4.50;1.67;;;;;;;17.30;43.41;98499.59;5051295;28;20045;-45
2022/04/26 15:47:11;;;;;;;9.82;2.33;;;;;;;17.40;43.44;98531.22;5046917;28;20083;-50
2022/04/26 15:49:37;;;;;;;5.15;1.95;;;;;;;17.24;43.72;98522.91;5063202;28;20145;-50
2022/04/26 15:52:03;;;;;;;7.50;2.10;;;;;;;17.27;43.69;98533.97;5031058;28;20481;-46
2022/04/26 15:54:29;;;;;;;9.13;1.98;;;;;;;17.22;43.82;98540.56;5043942;28;20052;-46
2022/04/26 15:56:55;;;;;;;4.80;1.70;;;;;;;17.16;44.04;98541.91;5043328;28;20037;-45